createdAt,value
2023-02-08T00:00:23.143Z,101486.38
2023-02-08T00:01:26.425Z,101484.69
2023-02-08T00:02:28.680Z,101493.28
2023-02-08T00:03:30.912Z,101483.09
2023-02-08T00:04:33.160Z,101481.78
2023-02-08T00:05:35.413Z,101487.94
2023-02-08T00:06:37.713Z,101488.09
2023-02-08T00:07:39.985Z,101481.13
2023-02-08T00:08:42.309Z,101485.84
2023-02-08T00:09:44.514Z,101496.94
2023-02-08T00:10:46.704Z,101483.72
2023-02-08T00:11:48.996Z,101491.38
2023-02-08T00:12:52.219Z,101491.16
2023-02-08T00:13:54.419Z,101487.50
2023-02-08T00:14:56.589Z,101486.91
2023-02-08T00:15:59.020Z,101491.41
2023-02-08T00:17:01.319Z,101494.81
2023-02-08T00:18:03.581Z,101488.53
2023-02-08T00:19:05.829Z,101489.50
2023-02-08T00:20:08.615Z,101492.66
2023-02-08T00:21:13.484Z,101493.41
2023-02-08T00:22:15.756Z,101484.34
2023-02-08T00:23:18.536Z,101481.56
2023-02-08T00:24:20.752Z,101487.34
2023-02-08T00:25:22.953Z,101474.66
2023-02-08T00:26:25.204Z,101478.09
2023-02-08T00:27:27.466Z,101480.75
2023-02-08T00:28:29.900Z,101478.91
2023-02-08T00:29:32.164Z,101461.81
2023-02-08T00:30:35.801Z,101479.22
2023-02-08T00:31:38.247Z,101470.31
2023-02-08T00:32:40.566Z,101478.84
2023-02-08T00:33:42.817Z,101468.78
2023-02-08T00:34:45.099Z,101475.53
2023-02-08T00:35:47.354Z,101477.66
2023-02-08T00:36:49.603Z,101477.50
2023-02-08T00:37:51.823Z,101471.28
2023-02-08T00:38:54.116Z,101478.03
2023-02-08T00:39:58.644Z,101481.38
2023-02-08T00:41:00.969Z,101470.38
2023-02-08T00:42:03.278Z,101472.28
2023-02-08T00:43:06.780Z,101471.50
2023-02-08T00:44:09.085Z,101476.66
2023-02-08T00:45:11.300Z,101470.53
2023-02-08T00:46:13.936Z,101476.56
2023-02-08T00:47:16.151Z,101475.84
2023-02-08T00:48:18.421Z,101476.72
2023-02-08T00:49:20.654Z,101478.56
2023-02-08T00:50:22.826Z,101479.41
2023-02-08T00:51:25.061Z,101484.63
2023-02-08T00:52:28.395Z,101478.75
2023-02-08T00:53:31.417Z,101482.28
2023-02-08T00:54:33.861Z,101483.16
2023-02-08T00:55:36.088Z,101483.16
2023-02-08T00:56:39.840Z,101476.25
2023-02-08T00:57:42.078Z,101484.84
2023-02-08T00:58:46.439Z,101470.31
2023-02-08T00:59:48.689Z,101478.84
2023-02-08T01:00:53.386Z,101481.41
2023-02-08T01:01:55.738Z,101480.66
2023-02-08T01:02:58.972Z,101476.19
2023-02-08T01:04:01.211Z,101481.41
2023-02-08T01:05:03.520Z,101475.44
2023-02-08T01:06:09.331Z,101472.59
2023-02-08T01:07:11.587Z,101474.19
2023-02-08T01:08:13.863Z,101476.06
2023-02-08T01:09:16.115Z,101472.44
2023-02-08T01:10:18.300Z,101471.59
2023-02-08T01:11:25.023Z,101469.13
2023-02-08T01:12:27.247Z,101472.59
2023-02-08T01:13:29.562Z,101465.06
2023-02-08T01:14:31.908Z,101474.50
2023-02-08T01:15:34.274Z,101464.00
2023-02-08T01:16:36.899Z,101466.44
2023-02-08T01:17:39.193Z,101464.75
2023-02-08T01:18:43.081Z,101466.56
2023-02-08T01:19:45.279Z,101460.59
2023-02-08T01:20:47.525Z,101468.28
2023-02-08T01:21:50.214Z,101470.84
2023-02-08T01:22:52.546Z,101469.06
2023-02-08T01:23:55.313Z,101467.53
2023-02-08T01:24:57.549Z,101466.81
2023-02-08T01:25:59.914Z,101461.81
2023-02-08T01:27:02.207Z,101466.81
2023-02-08T01:28:05.630Z,101463.44
2023-02-08T01:29:08.384Z,101463.34
2023-02-08T01:30:11.260Z,101462.50
2023-02-08T01:31:22.419Z,101461.81
2023-02-08T01:32:24.649Z,101468.88
2023-02-08T01:33:27.826Z,101464.50
2023-02-08T01:34:30.028Z,101465.31
2023-02-08T01:35:32.188Z,101460.13
2023-02-08T01:36:34.551Z,101456.53
2023-02-08T01:37:36.771Z,101458.94
2023-02-08T01:38:39.439Z,101456.31
2023-02-08T01:39:41.625Z,101458.13
2023-02-08T01:40:43.929Z,101444.50
2023-02-08T01:41:46.679Z,101453.88
2023-02-08T01:42:50.320Z,101452.97
2023-02-08T01:44:00.250Z,101452.66
2023-02-08T01:45:21.075Z,101452.81
2023-02-08T01:46:23.442Z,101448.47
2023-02-08T01:47:26.461Z,101435.75
2023-02-08T01:48:34.217Z,101448.69
2023-02-08T01:49:37.562Z,101446.94
2023-02-08T01:51:16.361Z,101448.53
2023-02-08T01:52:22.508Z,101438.56
2023-02-08T01:53:28.055Z,101439.31
2023-02-08T01:54:40.416Z,101443.38
2023-02-08T01:55:47.980Z,101438.22
2023-02-08T01:56:50.911Z,101439.22
2023-02-08T01:57:57.819Z,101437.09
2023-02-08T01:59:04.247Z,101436.31
2023-02-08T02:02:14.511Z,101431.75
2023-02-08T02:03:19.512Z,101438.63
2023-02-08T02:04:22.563Z,101436.00
2023-02-08T02:05:38.192Z,101427.41
2023-02-08T02:06:45.241Z,101436.66
2023-02-08T02:07:48.530Z,101435.72
2023-02-08T02:09:14.987Z,101428.88
2023-02-08T02:10:35.138Z,101434.97
2023-02-08T02:11:37.414Z,101426.97
2023-02-08T02:12:41.733Z,101425.56
2023-02-08T02:13:44.201Z,101429.25
2023-02-08T02:14:46.554Z,101423.97
2023-02-08T02:15:49.991Z,101424.63
2023-02-08T02:16:52.304Z,101421.84
2023-02-08T02:17:55.515Z,101424.31
2023-02-08T02:18:58.065Z,101426.91
2023-02-08T02:20:24.619Z,101423.22
2023-02-08T02:22:08.470Z,101423.88
2023-02-08T02:23:14.590Z,101417.66
2023-02-08T02:24:22.607Z,101413.38
2023-02-08T02:25:44.174Z,101416.84
2023-02-08T02:27:05.022Z,101420.97
2023-02-08T02:28:25.946Z,101418.44
2023-02-08T02:29:31.920Z,101415.88
2023-02-08T02:31:01.417Z,101426.09
2023-02-08T02:32:37.107Z,101415.16
2023-02-08T02:33:42.303Z,101421.25
2023-02-08T02:35:06.425Z,101419.19
2023-02-08T02:36:31.960Z,101416.53
2023-02-08T02:38:03.491Z,101421.16
2023-02-08T02:39:08.262Z,101419.56
2023-02-08T02:40:59.646Z,101417.00
2023-02-08T02:42:32.846Z,101409.88
2023-02-08T02:43:57.506Z,101411.56
2023-02-08T02:45:32.332Z,101420.81
2023-02-08T02:46:43.160Z,101422.06
2023-02-08T02:48:09.688Z,101417.00
2023-02-08T02:49:26.706Z,101408.91
2023-02-08T02:50:37.297Z,101414.13
2023-02-08T02:51:52.563Z,101417.66
2023-02-08T02:52:59.226Z,101414.84
2023-02-08T02:54:19.410Z,101414.69
2023-02-08T02:55:25.824Z,101415.59
2023-02-08T02:56:33.730Z,101414.94
2023-02-08T02:57:37.187Z,101414.78
2023-02-08T02:58:40.901Z,101416.41
2023-02-08T02:59:45.174Z,101415.50
2023-02-08T03:00:53.863Z,101410.63
2023-02-08T03:01:57.352Z,101410.38
2023-02-08T03:02:59.579Z,101414.69
2023-02-08T03:04:38.036Z,101404.59
2023-02-08T03:05:40.352Z,101406.06
2023-02-08T03:07:10.387Z,101417.19
2023-02-08T03:08:45.577Z,101413.91
2023-02-08T03:09:56.577Z,101409.50
2023-02-08T03:11:31.093Z,101416.16
2023-02-08T03:13:05.558Z,101414.50
2023-02-08T03:14:16.403Z,101412.94
2023-02-08T03:15:51.562Z,101412.63
2023-02-08T03:17:27.874Z,101418.75
2023-02-08T03:18:40.862Z,101418.56
2023-02-08T03:20:03.483Z,101409.94
2023-02-08T03:21:26.737Z,101408.16
2023-02-08T03:22:49.193Z,101408.47
2023-02-08T03:24:06.565Z,101411.78
2023-02-08T03:25:24.952Z,101401.59
2023-02-08T03:26:46.716Z,101412.88
2023-02-08T03:28:03.918Z,101398.94
2023-02-08T03:29:18.512Z,101413.44
2023-02-08T03:30:27.990Z,101415.16
2023-02-08T03:31:39.323Z,101412.44
2023-02-08T03:32:44.013Z,101411.69
2023-02-08T03:33:54.650Z,101403.19
2023-02-08T03:35:15.248Z,101403.09
2023-02-08T03:36:32.903Z,101412.59
2023-02-08T03:37:45.576Z,101415.81
2023-02-08T03:38:50.628Z,101411.53
2023-02-08T03:40:02.893Z,101410.72
2023-02-08T03:41:10.282Z,101410.59
2023-02-08T03:42:19.425Z,101417.47
2023-02-08T03:43:36.066Z,101410.72
2023-02-08T03:44:44.042Z,101418.41
2023-02-08T03:45:55.255Z,101422.78
2023-02-08T03:47:02.757Z,101427.75
2023-02-08T03:48:09.621Z,101424.38
2023-02-08T03:49:16.387Z,101428.69
2023-02-08T03:50:21.152Z,101427.00
2023-02-08T03:51:26.548Z,101427.91
2023-02-08T03:52:31.458Z,101422.84
2023-02-08T03:53:39.298Z,101421.97
2023-02-08T03:54:49.618Z,101424.69
2023-02-08T03:56:02.374Z,101425.69
2023-02-08T03:57:12.791Z,101424.75
2023-02-08T03:58:41.765Z,101424.69
2023-02-08T03:59:49.755Z,101421.22
2023-02-08T04:01:04.721Z,101415.34
2023-02-08T04:02:13.946Z,101426.50
2023-02-08T04:03:22.499Z,101417.16
2023-02-08T04:04:28.916Z,101422.63
2023-02-08T04:05:31.338Z,101410.38
2023-02-08T04:06:33.581Z,101425.19
2023-02-08T04:07:35.827Z,101421.81
2023-02-08T04:08:38.039Z,101421.00
2023-02-08T04:09:40.239Z,101419.50
2023-02-08T04:10:42.762Z,101421.16
2023-02-08T04:11:45.214Z,101422.06
2023-02-08T04:12:49.112Z,101421.16
2023-02-08T04:13:51.287Z,101419.66
2023-02-08T04:14:53.529Z,101421.09
2023-02-08T04:15:55.773Z,101426.69
2023-02-08T04:16:57.989Z,101412.06
2023-02-08T04:18:00.157Z,101424.81
2023-02-08T04:19:02.463Z,101419.66
2023-02-08T04:20:05.100Z,101417.88
2023-02-08T04:21:07.531Z,101418.75
2023-02-08T04:22:09.687Z,101416.94
2023-02-08T04:23:11.909Z,101420.34
2023-02-08T04:24:14.238Z,101423.00
2023-02-08T04:25:16.501Z,101422.13
2023-02-08T04:26:18.793Z,101415.22
2023-02-08T04:27:21.025Z,101420.34
2023-02-08T04:28:23.341Z,101417.00
2023-02-08T04:29:25.682Z,101420.34
2023-02-08T04:30:28.032Z,101420.34
2023-02-08T04:31:30.390Z,101418.59
2023-02-08T04:32:32.852Z,101417.59
2023-02-08T04:33:35.015Z,101421.16
2023-02-08T04:34:38.593Z,101415.00
2023-02-08T04:35:41.942Z,101420.00
2023-02-08T04:36:44.123Z,101423.44
2023-02-08T04:37:46.796Z,101413.84
2023-02-08T04:38:49.258Z,101415.59
2023-02-08T04:39:51.537Z,101411.13
2023-02-08T04:40:53.736Z,101416.81
2023-02-08T04:41:55.976Z,101421.97
2023-02-08T04:42:58.158Z,101418.66
2023-02-08T04:44:00.392Z,101410.16
2023-02-08T04:45:02.723Z,101418.75
2023-02-08T04:46:05.287Z,101415.16
2023-02-08T04:47:07.719Z,101411.63
2023-02-08T04:48:11.829Z,101407.38
2023-02-08T04:49:14.260Z,101403.69
2023-02-08T04:50:16.871Z,101397.78
2023-02-08T04:51:19.080Z,101407.72
2023-02-08T04:52:21.257Z,101406.19
2023-02-08T04:53:27.191Z,101404.22
2023-02-08T04:54:29.490Z,101403.41
2023-02-08T04:55:31.761Z,101401.78
2023-02-08T04:56:34.007Z,101404.72
2023-02-08T04:57:36.221Z,101394.41
2023-02-08T04:58:38.412Z,101401.84
2023-02-08T04:59:41.182Z,101392.81
2023-02-08T05:00:43.561Z,101400.50
2023-02-08T05:01:45.934Z,101394.69
2023-02-08T05:02:48.208Z,101400.47
2023-02-08T05:03:50.661Z,101391.88
2023-02-08T05:04:52.832Z,101390.84
2023-02-08T05:05:58.764Z,101396.19
2023-02-08T05:07:01.084Z,101398.41
2023-02-08T05:08:03.683Z,101398.31
2023-02-08T05:09:09.720Z,101393.19
2023-02-08T05:10:12.196Z,101392.28
2023-02-08T05:11:20.909Z,101389.50
2023-02-08T05:12:23.154Z,101383.66
2023-02-08T05:13:25.424Z,101384.69
2023-02-08T05:14:27.646Z,101389.00
2023-02-08T05:15:29.877Z,101383.94
2023-02-08T05:16:32.196Z,101385.72
2023-02-08T05:17:34.506Z,101385.00
2023-02-08T05:18:36.830Z,101381.03
2023-02-08T05:19:39.070Z,101386.09
2023-02-08T05:20:41.558Z,101386.84
2023-02-08T05:21:44.001Z,101381.13
2023-02-08T05:22:46.358Z,101373.13
2023-02-08T05:23:49.973Z,101382.56
2023-02-08T05:24:52.151Z,101384.34
2023-02-08T05:25:54.332Z,101374.88
2023-02-08T05:26:56.581Z,101381.53
2023-02-08T05:28:00.426Z,101385.13
2023-02-08T05:29:02.799Z,101381.31
2023-02-08T05:30:05.395Z,101385.66
2023-02-08T05:31:33.732Z,101380.72
2023-02-08T05:32:36.050Z,101379.88
2023-02-08T05:33:38.254Z,101377.16
2023-02-08T05:34:40.709Z,101380.97
2023-02-08T05:35:45.030Z,101381.63
2023-02-08T05:36:47.314Z,101389.41
2023-02-08T05:37:49.624Z,101387.00
2023-02-08T05:38:53.461Z,101386.75
2023-02-08T05:39:55.905Z,101391.72
2023-02-08T05:40:58.161Z,101382.34
2023-02-08T05:42:00.746Z,101389.16
2023-02-08T05:43:03.285Z,101390.78
2023-02-08T05:44:05.575Z,101391.56
2023-02-08T05:45:08.118Z,101388.94
2023-02-08T05:46:10.286Z,101392.38
2023-02-08T05:47:12.506Z,101388.88
2023-02-08T05:48:14.800Z,101390.63
2023-02-08T05:49:16.982Z,101391.50
2023-02-08T05:50:19.214Z,101387.91
2023-02-08T05:51:21.730Z,101382.69
2023-02-08T05:52:24.043Z,101390.38
2023-02-08T05:53:27.333Z,101387.72
2023-02-08T05:54:29.503Z,101387.44
2023-02-08T05:55:31.733Z,101384.88
2023-02-08T05:56:34.648Z,101377.91
2023-02-08T05:57:37.161Z,101382.16
2023-02-08T05:58:39.440Z,101383.19
2023-02-08T05:59:42.159Z,101390.81
2023-02-08T06:00:45.353Z,101390.50
2023-02-08T06:01:47.608Z,101392.97
2023-02-08T06:02:49.879Z,101389.56
2023-02-08T06:03:52.200Z,101391.78
2023-02-08T06:04:55.915Z,101392.81
2023-02-08T06:06:00.935Z,101395.25
2023-02-08T06:07:03.148Z,101395.16
2023-02-08T06:08:05.920Z,101391.06
2023-02-08T06:09:08.117Z,101390.25
2023-02-08T06:10:11.648Z,101397.81
2023-02-08T06:11:13.930Z,101397.56
2023-02-08T06:12:16.143Z,101403.50
2023-02-08T06:13:18.362Z,101405.09
2023-02-08T06:14:20.552Z,101398.44
2023-02-08T06:15:22.789Z,101405.97
2023-02-08T06:16:25.290Z,101403.31
2023-02-08T06:17:27.731Z,101403.31
2023-02-08T06:18:29.949Z,101399.88
2023-02-08T06:19:32.124Z,101404.91
2023-02-08T06:20:34.835Z,101403.66
2023-02-08T06:21:37.059Z,101402.44
2023-02-08T06:22:39.378Z,101415.41
2023-02-08T06:23:42.341Z,101408.38
2023-02-08T06:24:44.539Z,101408.28
2023-02-08T06:25:46.760Z,101406.69
2023-02-08T06:26:49.004Z,101412.56
2023-02-08T06:27:51.246Z,101415.13
2023-02-08T06:28:53.464Z,101414.53
2023-02-08T06:29:55.791Z,101415.25
2023-02-08T06:30:58.016Z,101409.19
2023-02-08T06:32:00.267Z,101411.81
2023-02-08T06:33:02.635Z,101410.94
2023-02-08T06:34:04.935Z,101408.53
2023-02-08T06:35:07.691Z,101407.56
2023-02-08T06:36:10.035Z,101405.72
2023-02-08T06:37:12.236Z,101409.47
2023-02-08T06:38:15.121Z,101405.97
2023-02-08T06:39:17.294Z,101412.56
2023-02-08T06:40:19.576Z,101402.22
2023-02-08T06:41:21.832Z,101413.41
2023-02-08T06:42:24.049Z,101409.09
2023-02-08T06:43:26.324Z,101418.53
2023-02-08T06:44:28.726Z,101415.91
2023-02-08T06:45:30.936Z,101416.63
2023-02-08T06:46:33.189Z,101415.16
2023-02-08T06:47:35.631Z,101417.03
2023-02-08T06:48:37.863Z,101416.97
2023-02-08T06:49:40.111Z,101417.81
2023-02-08T06:50:42.739Z,101415.34
2023-02-08T06:51:45.194Z,101415.25
2023-02-08T06:52:47.914Z,101424.00
2023-02-08T06:53:50.346Z,101418.78
2023-02-08T06:54:52.614Z,101423.28
2023-02-08T06:55:54.819Z,101423.28
2023-02-08T06:56:57.151Z,101424.94
2023-02-08T06:57:59.438Z,101424.00
2023-02-08T06:59:01.683Z,101425.75
2023-02-08T07:00:05.451Z,101418.06
2023-02-08T07:01:12.070Z,101425.03
2023-02-08T07:02:17.075Z,101435.28
2023-02-08T07:03:19.378Z,101426.00
2023-02-08T07:04:21.588Z,101428.66
2023-02-08T07:05:23.815Z,101431.13
2023-02-08T07:06:26.242Z,101427.59
2023-02-08T07:07:28.464Z,101435.28
2023-02-08T07:08:31.096Z,101432.06
2023-02-08T07:09:34.940Z,101436.47
2023-02-08T07:10:40.564Z,101427.75
2023-02-08T07:11:43.108Z,101425.28
2023-02-08T07:12:45.302Z,101429.59
2023-02-08T07:13:49.759Z,101416.84
2023-02-08T07:14:52.008Z,101420.31
2023-02-08T07:15:54.310Z,101439.19
2023-02-08T07:16:56.595Z,101436.31
2023-02-08T07:17:58.930Z,101427.81
2023-02-08T07:19:01.128Z,101431.00
2023-02-08T07:20:03.509Z,101442.53
2023-02-08T07:21:05.924Z,101443.53
2023-02-08T07:22:08.430Z,101431.03
2023-02-08T07:23:10.698Z,101438.09
2023-02-08T07:24:12.876Z,101435.59
2023-02-08T07:25:15.155Z,101439.19
2023-02-08T07:26:17.520Z,101438.13
2023-02-08T07:27:19.706Z,101439.13
2023-02-08T07:28:22.023Z,101436.47
2023-02-08T07:29:24.280Z,101430.84
2023-02-08T07:30:26.466Z,101433.16
2023-02-08T07:31:28.748Z,101432.09
2023-02-08T07:32:33.122Z,101437.16
2023-02-08T07:33:37.554Z,101423.09
2023-02-08T07:34:40.700Z,101431.28
2023-02-08T07:35:43.067Z,101434.50
2023-02-08T07:36:45.266Z,101431.69
2023-02-08T07:37:47.567Z,101435.31
2023-02-08T07:38:49.854Z,101429.84
2023-02-08T07:39:52.270Z,101425.38
2023-02-08T07:41:04.518Z,101434.41
2023-02-08T07:42:08.822Z,101424.28
2023-02-08T07:43:21.650Z,101428.09
2023-02-08T07:44:32.165Z,101431.06
2023-02-08T07:45:34.494Z,101428.81
2023-02-08T07:46:36.694Z,101424.66
2023-02-08T07:47:38.845Z,101428.13
2023-02-08T07:48:41.332Z,101410.53
2023-02-08T07:49:43.566Z,101414.00
2023-02-08T07:50:45.745Z,101412.50
2023-02-08T07:51:48.071Z,101415.16
2023-02-08T07:52:50.218Z,101416.28
2023-02-08T07:53:52.503Z,101417.56
2023-02-08T07:54:54.749Z,101417.72
2023-02-08T07:55:57.085Z,101415.81
2023-02-08T07:57:01.704Z,101410.38
2023-02-08T07:58:04.977Z,101414.38
2023-02-08T07:59:07.215Z,101409.09
2023-02-08T08:00:10.287Z,101411.56
2023-02-08T08:01:22.437Z,101412.50
2023-02-08T08:02:25.204Z,101413.00
2023-02-08T08:03:27.459Z,101414.84
2023-02-08T08:04:29.680Z,101411.94
2023-02-08T08:05:31.995Z,101413.38
2023-02-08T08:06:34.918Z,101405.44
2023-02-08T08:07:37.697Z,101412.72
2023-02-08T08:08:39.996Z,101403.78
2023-02-08T08:09:42.292Z,101404.41
2023-02-08T08:10:45.027Z,101407.13
2023-02-08T08:11:47.270Z,101414.09
2023-02-08T08:12:49.507Z,101404.94
2023-02-08T08:13:52.121Z,101413.84
2023-02-08T08:14:54.395Z,101412.53
2023-02-08T08:15:56.622Z,101413.00
2023-02-08T08:16:58.809Z,101415.97
2023-02-08T08:18:01.195Z,101402.78
2023-02-08T08:19:03.426Z,101407.69
2023-02-08T08:20:05.942Z,101409.81
2023-02-08T08:21:08.450Z,101410.34
2023-02-08T08:22:10.935Z,101408.88
2023-02-08T08:23:13.186Z,101398.66
2023-02-08T08:24:15.436Z,101415.03
2023-02-08T08:25:17.721Z,101415.88
2023-02-08T08:26:20.940Z,101405.81
2023-02-08T08:27:23.179Z,101413.53
2023-02-08T08:28:26.082Z,101400.97
2023-02-08T08:29:28.353Z,101408.31
2023-02-08T08:30:30.810Z,101393.22
2023-02-08T08:31:33.102Z,101404.50
2023-02-08T08:32:35.298Z,101401.41
2023-02-08T08:33:37.520Z,101393.09
2023-02-08T08:34:39.767Z,101395.03
2023-02-08T08:35:43.798Z,101397.84
2023-02-08T08:36:46.061Z,101395.91
2023-02-08T08:37:48.273Z,101404.41
2023-02-08T08:38:51.670Z,101405.41
2023-02-08T08:39:53.858Z,101399.00
2023-02-08T08:40:56.070Z,101401.41
2023-02-08T08:41:59.981Z,101402.38
2023-02-08T08:43:02.177Z,101406.00
2023-02-08T08:44:04.476Z,101400.75
2023-02-08T08:45:07.949Z,101399.38
2023-02-08T08:46:10.492Z,101396.44
2023-02-08T08:47:13.030Z,101391.94
2023-02-08T08:48:15.266Z,101400.91
2023-02-08T08:49:17.485Z,101392.38
2023-02-08T08:50:19.689Z,101387.97
2023-02-08T08:51:21.959Z,101390.53
2023-02-08T08:52:24.213Z,101389.88
2023-02-08T08:53:26.477Z,101390.63
2023-02-08T08:54:28.676Z,101398.72
2023-02-08T08:55:31.260Z,101396.50
2023-02-08T08:56:33.833Z,101394.28
2023-02-08T08:57:36.114Z,101401.66
2023-02-08T08:58:38.326Z,101404.06
2023-02-08T08:59:40.562Z,101396.50
2023-02-08T09:00:43.108Z,101403.03
2023-02-08T09:01:45.416Z,101393.13
2023-02-08T09:02:47.694Z,101397.97
2023-02-08T09:03:49.976Z,101401.56
2023-02-08T09:04:52.295Z,101406.28
2023-02-08T09:05:54.584Z,101402.13
2023-02-08T09:06:56.925Z,101407.09
2023-02-08T09:08:01.320Z,101401.28
2023-02-08T09:09:03.966Z,101396.50
2023-02-08T09:10:06.655Z,101403.47
2023-02-08T09:11:11.475Z,101400.84
2023-02-08T09:12:15.760Z,101388.38
2023-02-08T09:13:21.682Z,101390.75
2023-02-08T09:14:23.982Z,101386.97
2023-02-08T09:15:26.223Z,101394.78
2023-02-08T09:16:28.681Z,101386.28
2023-02-08T09:17:31.589Z,101393.25
2023-02-08T09:18:34.064Z,101395.84
2023-02-08T09:19:36.307Z,101386.56
2023-02-08T09:20:39.355Z,101379.44
2023-02-08T09:21:41.773Z,101384.78
2023-02-08T09:22:43.985Z,101387.13
2023-02-08T09:23:49.897Z,101388.16
2023-02-08T09:24:53.672Z,101396.59
2023-02-08T09:25:55.834Z,101398.47
2023-02-08T09:26:58.021Z,101401.88
2023-02-08T09:28:00.313Z,101397.53
2023-02-08T09:29:03.036Z,101391.47
2023-02-08T09:30:05.971Z,101390.03
2023-02-08T09:31:20.155Z,101382.72
2023-02-08T09:32:22.961Z,101386.53
2023-02-08T09:33:25.165Z,101387.09
2023-02-08T09:34:27.758Z,101380.03
2023-02-08T09:35:30.225Z,101379.97
2023-02-08T09:36:34.934Z,101377.81
2023-02-08T09:37:37.109Z,101382.19
2023-02-08T09:38:39.924Z,101373.75
2023-02-08T09:39:42.156Z,101373.34
2023-02-08T09:40:46.956Z,101373.25
2023-02-08T09:42:22.723Z,101367.94
2023-02-08T09:43:46.649Z,101376.03
2023-02-08T09:45:07.289Z,101366.75
2023-02-08T09:46:19.117Z,101367.97
2023-02-08T09:47:35.963Z,101366.25
2023-02-08T09:48:40.287Z,101374.53
2023-02-08T09:49:54.238Z,101370.72
2023-02-08T09:51:05.279Z,101371.91
2023-02-08T09:52:18.462Z,101376.69
2023-02-08T09:53:32.496Z,101372.13
2023-02-08T09:54:40.096Z,101380.16
2023-02-08T09:55:49.604Z,101369.25
2023-02-08T09:56:52.608Z,101367.38
2023-02-08T09:57:57.759Z,101367.50
2023-02-08T09:59:01.798Z,101382.03
2023-02-08T10:00:15.699Z,101381.19
2023-02-08T10:01:26.992Z,101375.75
2023-02-08T10:02:32.889Z,101370.25
2023-02-08T10:03:41.458Z,101373.78
2023-02-08T10:04:55.123Z,101377.66
2023-02-08T10:05:57.420Z,101360.38
2023-02-08T10:06:59.564Z,101373.50
2023-02-08T10:08:01.935Z,101375.75
2023-02-08T10:09:07.162Z,101370.41
2023-02-08T10:10:21.153Z,101361.19
2023-02-08T10:11:53.509Z,101365.56
2023-02-08T10:13:21.493Z,101367.25
2023-02-08T10:14:48.223Z,101368.50
2023-02-08T10:15:56.068Z,101363.03
2023-02-08T10:17:36.982Z,101354.81
2023-02-08T10:18:51.867Z,101354.59
2023-02-08T10:20:09.360Z,101363.97
2023-02-08T10:21:18.781Z,101359.28
2023-02-08T10:22:44.668Z,101361.63
2023-02-08T10:23:59.522Z,101363.09
2023-02-08T10:25:10.442Z,101358.53
2023-02-08T10:26:21.587Z,101358.28
2023-02-08T10:27:39.004Z,101359.78
2023-02-08T10:29:08.230Z,101357.22
2023-02-08T10:30:35.298Z,101350.53
2023-02-08T10:32:01.691Z,101346.88
2023-02-08T10:33:25.528Z,101356.06
2023-02-08T10:34:42.724Z,101348.19
2023-02-08T10:35:49.928Z,101351.84
2023-02-08T10:36:52.727Z,101350.22
2023-02-08T10:37:56.787Z,101341.00
2023-02-08T10:39:00.519Z,101338.13
2023-02-08T10:40:21.022Z,101334.94
2023-02-08T10:41:32.262Z,101331.84
2023-02-08T10:42:35.986Z,101323.88
2023-02-08T10:44:02.330Z,101331.75
2023-02-08T10:45:23.630Z,101327.03
2023-02-08T10:46:38.107Z,101322.88
2023-02-08T10:47:49.510Z,101325.78
2023-02-08T10:49:03.846Z,101317.06
2023-02-08T10:50:24.324Z,101324.72
2023-02-08T10:51:27.424Z,101320.91
2023-02-08T10:52:29.772Z,101315.16
2023-02-08T10:53:32.025Z,101319.84
2023-02-08T10:54:35.064Z,101321.97
2023-02-08T10:55:42.015Z,101320.38
2023-02-08T10:56:50.858Z,101317.19
2023-02-08T10:57:58.486Z,101315.81
2023-02-08T10:59:04.812Z,101313.00
2023-02-08T11:00:18.194Z,101313.44
2023-02-08T11:01:20.440Z,101315.75
2023-02-08T11:02:26.690Z,101319.25
2023-02-08T11:03:29.867Z,101304.34
2023-02-08T11:04:32.189Z,101297.38
2023-02-08T11:05:36.568Z,101306.19
2023-02-08T11:06:43.762Z,101314.41
2023-02-08T11:07:46.165Z,101303.72
2023-02-08T11:08:55.541Z,101308.03
2023-02-08T11:10:19.372Z,101304.09
2023-02-08T11:11:21.776Z,101297.63
2023-02-08T11:12:24.034Z,101302.00
2023-02-08T11:13:51.260Z,101298.47
2023-02-08T11:14:54.043Z,101296.38
2023-02-08T11:15:59.844Z,101293.78
2023-02-08T11:17:02.180Z,101297.75
2023-02-08T11:18:06.901Z,101297.66
2023-02-08T11:19:23.443Z,101291.56
2023-02-08T11:20:34.652Z,101287.75
2023-02-08T11:21:39.669Z,101289.94
2023-02-08T11:22:45.732Z,101281.09
2023-02-08T11:23:52.595Z,101277.91
2023-02-08T11:24:58.501Z,101287.75
2023-02-08T11:26:18.760Z,101282.47
2023-02-08T11:27:35.265Z,101284.63
2023-02-08T11:28:37.422Z,101277.97
2023-02-08T11:29:39.633Z,101276.06
2023-02-08T11:30:54.444Z,101280.03
2023-02-08T11:32:01.764Z,101282.56
2023-02-08T11:33:20.035Z,101271.22
2023-02-08T11:34:41.106Z,101277.09
2023-02-08T11:35:43.675Z,101276.88
2023-02-08T11:36:47.279Z,101277.38
2023-02-08T11:37:54.638Z,101272.69
2023-02-08T11:38:58.103Z,101273.44
2023-02-08T11:40:02.033Z,101264.09
2023-02-08T11:41:13.573Z,101255.53
2023-02-08T11:42:26.657Z,101261.16
2023-02-08T11:43:37.730Z,101259.50
2023-02-08T11:44:44.644Z,101267.25
2023-02-08T11:45:47.558Z,101270.28
2023-02-08T11:46:51.346Z,101250.78
2023-02-08T11:47:54.225Z,101253.59
2023-02-08T11:48:56.933Z,101261.34
2023-02-08T11:50:01.867Z,101261.91
2023-02-08T11:51:04.347Z,101260.63
2023-02-08T11:52:20.388Z,101260.63
2023-02-08T11:53:29.532Z,101254.13
2023-02-08T11:54:40.523Z,101240.84
2023-02-08T11:55:43.490Z,101257.75
2023-02-08T11:57:01.863Z,101246.47
2023-02-08T11:58:24.283Z,101249.03
2023-02-08T11:59:28.861Z,101242.75
2023-02-08T12:00:36.824Z,101247.41
2023-02-08T12:01:41.395Z,101243.56
2023-02-08T12:02:44.100Z,101235.03
2023-02-08T12:03:50.216Z,101252.22
2023-02-08T12:04:52.451Z,101243.31
2023-02-08T12:06:02.870Z,101242.69
2023-02-08T12:07:26.544Z,101249.06
2023-02-08T12:08:48.245Z,101238.19
2023-02-08T12:09:58.312Z,101244.16
2023-02-08T12:11:25.484Z,101243.28
2023-02-08T12:12:56.496Z,101239.38
2023-02-08T12:14:26.496Z,101232.69
2023-02-08T12:16:04.150Z,101230.00
2023-02-08T12:17:26.225Z,101228.47
2023-02-08T12:19:05.022Z,101222.88
2023-02-08T12:20:29.589Z,101238.09
2023-02-08T12:21:45.106Z,101211.03
2023-02-08T12:23:41.097Z,101230.13
2023-02-08T12:24:55.341Z,101220.84
2023-02-08T12:26:28.531Z,101216.81
2023-02-08T12:27:58.428Z,101210.22
2023-02-08T12:29:06.714Z,101220.25
2023-02-08T12:30:32.680Z,101225.19
2023-02-08T12:31:40.606Z,101198.16
2023-02-08T12:33:03.741Z,101201.28
2023-02-08T12:34:33.106Z,101199.38
2023-02-08T12:36:04.685Z,101205.53
2023-02-08T12:37:50.754Z,101198.47
2023-02-08T12:39:26.040Z,101191.38
2023-02-08T12:40:52.503Z,101188.22
2023-02-08T12:42:13.195Z,101196.13
2023-02-08T12:43:36.619Z,101188.94
2023-02-08T12:45:16.617Z,101193.56
2023-02-08T12:46:40.009Z,101183.88
2023-02-08T12:48:26.718Z,101185.53